Time;durP1;ratioP1;P1;durP2;ratioP2;P2;SDS_P1;SDS_P2;PMS_P1;PMS_P2;Temp;Humidity;BMP_temperature;BMP_pressure;BME280_temperature;BME280_humidity;BME280_pressure;Samples;Min_cycle;Max_cycle;Signal;HPM_P1;HPM_P2
2021/11/27 00:02:16;;;;;;;4.32;3.92;;;;;;;5.75;69.11;96651.47;6123439;23;20025;-60
2021/11/27 00:04:44;;;;;;;5.22;4.07;;;;;;;5.74;69.31;96650.66;6096971;23;20455;-61
2021/11/27 00:07:10;;;;;;;4.55;4.03;;;;;;;5.75;69.15;96648.84;6122859;23;20049;-61
2021/11/27 00:09:37;;;;;;;4.07;3.65;;;;;;;5.74;69.14;96649.81;6122423;23;20545;-61
2021/11/27 00:12:04;;;;;;;4.28;3.88;;;;;;;5.73;69.33;96643.75;6123224;23;20044;-61
2021/11/27 00:14:33;;;;;;;3.47;3.17;;;;;;;5.73;69.20;96643.75;6122900;23;20026;-60
2021/11/27 00:17:01;;;;;;;5.10;3.90;;;;;;;5.73;69.06;96648.97;6122951;23;20483;-61
2021/11/27 00:19:27;;;;;;;3.95;3.55;;;;;;;5.73;69.30;96640.34;6122432;23;20332;-62
2021/11/27 00:21:54;;;;;;;3.40;3.10;;;;;;;5.74;69.34;96647.22;6123080;23;20026;-62
2021/11/27 00:24:21;;;;;;;3.72;3.33;;;;;;;5.73;69.25;96637.75;6123032;23;20061;-62
2021/11/27 00:26:48;;;;;;;4.32;3.75;;;;;;;5.73;69.27;96633.31;6123126;23;20037;-63
2021/11/27 00:29:14;;;;;;;3.63;3.33;;;;;;;5.76;69.32;96640.09;6122634;23;20036;-61
2021/11/27 00:31:42;;;;;;;3.90;3.50;;;;;;;5.76;69.36;96634.88;6122701;23;20458;-61
2021/11/27 00:34:09;;;;;;;4.20;3.40;;;;;;;5.79;69.38;96644.22;6122629;23;20451;-61
2021/11/27 00:36:36;;;;;;;3.60;3.30;;;;;;;5.79;69.15;96644.22;6122530;23;20459;-61
2021/11/27 00:39:05;;;;;;;3.47;3.17;;;;;;;5.80;69.21;96635.41;6122952;23;20467;-62
2021/11/27 00:41:32;;;;;;;3.47;3.03;;;;;;;5.79;69.20;96636.38;6122799;23;20135;-63
2021/11/27 00:43:59;;;;;;;3.30;3.00;;;;;;;5.79;69.21;96631.97;6097334;23;20030;-61
2021/11/27 00:46:26;;;;;;;3.53;3.15;;;;;;;5.78;69.29;96632.94;6122907;23;20040;-62
2021/11/27 00:48:52;;;;;;;3.63;2.97;;;;;;;5.78;69.32;96632.09;6123215;23;20089;-61
2021/11/27 00:51:21;;;;;;;3.47;3.15;;;;;;;5.77;69.16;96633.91;6122114;23;20033;-61
2021/11/27 00:53:48;;;;;;;3.42;3.13;;;;;;;5.79;69.38;96625.94;6123069;23;20022;-62
2021/11/27 00:56:15;;;;;;;3.92;3.53;;;;;;;5.77;69.32;96627.84;6122430;23;20533;-61
2021/11/27 00:58:44;;;;;;;3.47;3.17;;;;;;;5.76;69.12;96627.03;6122511;23;20026;-61
2021/11/27 01:01:14;;;;;;;4.10;3.70;;;;;;;5.76;69.33;96624.44;6122483;23;20084;-61
2021/11/27 01:03:43;;;;;;;5.13;3.53;;;;;;;5.75;69.24;96625.38;6096963;23;20073;-61
2021/11/27 01:06:12;;;;;;;4.65;3.97;;;;;;;5.77;69.29;96630.47;6097097;23;20109;-63
2021/11/27 01:08:40;;;;;;;4.20;3.80;;;;;;;5.76;69.26;96624.44;6097194;23;20022;-61
2021/11/27 01:11:22;;;;;;;5.43;4.40;;;;;;;5.74;69.61;96621.13;6122153;23;20444;-62
2021/11/27 01:13:51;;;;;;;5.07;4.22;;;;;;;5.76;69.57;96621.81;6097038;23;20029;-62
2021/11/27 01:16:21;;;;;;;4.10;3.60;;;;;;;5.78;69.23;96625.09;6097084;23;20076;-62
2021/11/27 01:18:48;;;;;;;4.68;4.05;;;;;;;5.79;69.35;96624.13;6124564;23;20130;-61
2021/11/27 01:21:18;;;;;;;4.50;3.75;;;;;;;5.77;69.16;96615.63;6098491;23;20030;-62
2021/11/27 01:23:46;;;;;;;4.75;4.18;;;;;;;5.77;69.48;96627.84;6098808;23;20018;-62
2021/11/27 01:26:13;;;;;;;4.75;3.40;;;;;;;5.77;69.19;96623.47;6124493;23;20351;-62
2021/11/27 01:28:41;;;;;;;3.53;3.22;;;;;;;5.75;69.05;96627.97;6124597;23;20022;-61
2021/11/27 01:31:08;;;;;;;3.90;3.53;;;;;;;5.73;69.60;96625.50;6098504;23;20026;-62
2021/11/27 01:33:35;;;;;;;4.30;3.25;;;;;;;5.73;69.22;96622.09;6124405;23;20022;-61
2021/11/27 01:36:04;;;;;;;3.28;2.70;;;;;;;5.73;69.16;96619.47;6098711;23;20018;-61
2021/11/27 01:38:31;;;;;;;3.70;2.80;;;;;;;5.73;69.50;96617.66;6099112;23;20029;-62
2021/11/27 01:40:59;;;;;;;4.57;2.90;;;;;;;5.74;69.29;96623.72;6124253;23;20097;-61
2021/11/27 01:43:28;;;;;;;6.30;2.90;;;;;;;5.74;69.44;96623.72;6124156;23;20068;-61
2021/11/27 01:45:55;;;;;;;4.00;2.95;;;;;;;5.77;69.26;96625.22;6124367;23;20021;-62
2021/11/27 01:48:22;;;;;;;3.03;2.55;;;;;;;5.76;69.58;96624.44;6124042;23;20026;-61
2021/11/27 01:50:57;;;;;;;4.00;3.00;;;;;;;5.77;69.48;96626.06;6098133;23;20033;-62
2021/11/27 01:53:26;;;;;;;3.72;2.53;;;;;;;5.81;69.44;96627.44;6098568;23;20028;-61
2021/11/27 01:55:56;;;;;;;3.22;2.80;;;;;;;5.83;69.49;96637.75;6124175;23;20033;-62
2021/11/27 01:58:24;;;;;;;3.17;2.78;;;;;;;5.84;69.29;96636.78;6124514;23;20037;-63
2021/11/27 02:00:53;;;;;;;3.00;2.70;;;;;;;5.85;69.56;96633.22;6124193;23;20382;-62
2021/11/27 02:03:21;;;;;;;3.70;2.95;;;;;;;5.86;69.56;96627.88;6098418;23;20727;-61
2021/11/27 02:05:47;;;;;;;5.30;2.88;;;;;;;5.89;69.63;96636.38;6124265;23;20084;-62
2021/11/27 02:08:16;;;;;;;4.18;2.88;;;;;;;5.91;69.34;96637.06;6123774;23;20371;-62
2021/11/27 02:10:44;;;;;;;3.22;2.45;;;;;;;5.93;69.46;96637.75;6123817;23;20029;-62
2021/11/27 02:13:11;;;;;;;2.53;2.33;;;;;;;5.95;69.49;96639.25;6123193;23;20022;-62
2021/11/27 02:15:38;;;;;;;3.70;2.78;;;;;;;5.97;69.20;96641.75;6123968;23;20321;-63
2021/11/27 02:18:06;;;;;;;3.42;2.70;;;;;;;6.00;69.31;96637.09;6097786;23;20045;-62
2021/11/27 02:20:38;;;;;;;2.97;2.60;;;;;;;6.01;69.67;96632.69;6123482;23;20030;-61
2021/11/27 02:23:06;;;;;;;2.75;2.40;;;;;;;6.05;69.31;96641.13;6124141;23;20358;-62
2021/11/27 02:25:33;;;;;;;3.17;2.72;;;;;;;6.06;69.25;96640.94;6123488;23;20530;-61
2021/11/27 02:28:01;;;;;;;2.03;1.83;;;;;;;6.08;69.46;96630.38;6098078;23;20241;-62
2021/11/27 02:30:27;;;;;;;3.42;2.55;;;;;;;6.10;69.51;96642.34;6097595;23;20030;-62
2021/11/27 02:33:22;;;;;;;3.28;2.78;;;;;;;6.12;69.37;96640.44;6123912;23;20025;-63
2021/11/27 02:35:48;;;;;;;5.80;2.20;;;;;;;6.15;69.41;96635.88;6114071;23;20125;-62
2021/11/27 02:38:15;;;;;;;2.88;2.33;;;;;;;6.16;69.43;96640.97;6123731;23;20026;-61
2021/11/27 02:40:42;;;;;;;3.17;2.30;;;;;;;6.19;69.33;96640.69;6123447;23;20018;-61
2021/11/27 02:43:08;;;;;;;3.67;2.42;;;;;;;6.20;69.45;96642.34;6124024;23;20101;-63
2021/11/27 02:45:35;;;;;;;2.60;2.33;;;;;;;6.22;69.25;96640.44;6123733;23;20049;-62
2021/11/27 02:48:03;;;;;;;2.28;2.08;;;;;;;6.23;69.05;96642.06;6098171;23;20032;-62
2021/11/27 02:50:30;;;;;;;2.55;2.05;;;;;;;6.24;69.06;96633.28;6123446;23;20022;-62
2021/11/27 02:52:58;;;;;;;3.00;2.40;;;;;;;6.25;69.06;96631.50;6123988;23;20025;-63
2021/11/27 02:55:24;;;;;;;2.45;2.08;;;;;;;6.25;68.84;96626.28;6097685;23;20105;-62
2021/11/27 02:57:51;;;;;;;2.97;2.30;;;;;;;6.24;69.04;96624.59;6123363;23;20033;-62
2021/11/27 03:00:20;;;;;;;2.67;2.38;;;;;;;6.23;68.95;96633.41;6119670;23;20018;-62
2021/11/27 03:02:48;;;;;;;2.92;2.60;;;;;;;6.21;68.69;96636.16;6122904;23;20022;-62
2021/11/27 03:05:16;;;;;;;3.38;2.70;;;;;;;6.20;68.63;96623.25;6096960;23;20057;-61
2021/11/27 03:07:43;;;;;;;2.95;2.65;;;;;;;6.18;68.70;96633.84;6121335;23;20036;-66
2021/11/27 03:10:13;;;;;;;3.53;2.55;;;;;;;6.15;68.79;96628.03;6120137;23;20097;-61
2021/11/27 03:12:41;;;;;;;3.33;2.70;;;;;;;6.11;68.74;96633.56;6123726;23;20030;-62
2021/11/27 03:15:11;;;;;;;2.85;2.28;;;;;;;6.09;68.68;96632.06;6097692;23;20025;-61
2021/11/27 03:17:39;;;;;;;3.13;2.63;;;;;;;6.07;68.78;96632.19;6097512;23;20026;-62
2021/11/27 03:20:07;;;;;;;2.30;2.10;;;;;;;6.06;68.96;96635.72;6097718;23;20053;-62
2021/11/27 03:22:35;;;;;;;2.75;2.50;;;;;;;6.05;68.79;96626.25;6123926;23;20026;-62
2021/11/27 03:25:03;;;;;;;3.35;2.35;;;;;;;6.05;69.01;96635.91;6097362;23;20025;-62
2021/11/27 03:27:30;;;;;;;1.73;1.63;;;;;;;6.05;68.85;96634.09;6123483;23;20041;-62
2021/11/27 03:29:57;;;;;;;2.47;2.25;;;;;;;6.04;69.43;96635.06;6123331;23;20021;-62
2021/11/27 03:32:24;;;;;;;3.38;2.30;;;;;;;6.05;69.25;96638.50;6123596;23;20487;-62
2021/11/27 03:34:52;;;;;;;2.40;2.13;;;;;;;6.04;69.33;96632.44;6122738;23;20097;-62
2021/11/27 03:37:19;;;;;;;2.58;1.92;;;;;;;6.06;69.10;96638.34;6122959;23;20534;-61
2021/11/27 03:39:46;;;;;;;2.55;2.20;;;;;;;6.08;69.49;96643.44;6097353;23;20022;-61
2021/11/27 03:42:16;;;;;;;2.50;2.20;;;;;;;6.08;69.45;96643.44;6122754;23;20455;-62
2021/11/27 03:44:44;;;;;;;2.42;2.22;;;;;;;6.11;69.10;96646.63;6097622;23;20073;-61
2021/11/27 03:47:11;;;;;;;2.30;2.08;;;;;;;6.12;69.17;96643.03;6123309;23;20097;-62
2021/11/27 03:49:38;;;;;;;2.40;2.10;;;;;;;6.14;69.02;96655.97;6123190;23;20343;-62
2021/11/27 03:52:06;;;;;;;2.60;2.40;;;;;;;6.15;69.01;96651.53;6122838;23;20459;-62
2021/11/27 03:54:33;;;;;;;2.65;2.10;;;;;;;6.16;69.13;96653.22;6123464;23;20029;-62
2021/11/27 03:57:00;;;;;;;2.50;2.30;;;;;;;6.16;69.19;96661.06;6122998;23;20029;-61
2021/11/27 03:59:27;;;;;;;3.78;2.20;;;;;;;6.16;69.16;96659.25;6122893;23;20034;-62
2021/11/27 04:01:54;;;;;;;2.60;2.30;;;;;;;6.17;69.22;96657.47;6122894;23;20033;-62
2021/11/27 04:04:22;;;;;;;3.63;2.35;;;;;;;6.17;69.05;96657.47;6123240;23;20463;-61
2021/11/27 04:06:53;;;;;;;2.75;2.35;;;;;;;6.18;69.15;96664.34;6097810;23;20032;-62
2021/11/27 04:09:20;;;;;;;2.28;2.08;;;;;;;6.18;69.28;96670.41;6122806;23;20719;-62
2021/11/27 04:11:47;;;;;;;4.05;2.70;;;;;;;6.17;68.93;96668.72;6097354;23;20051;-62
2021/11/27 04:14:14;;;;;;;2.47;2.28;;;;;;;6.17;68.77;96675.75;6122664;23;20140;-61
2021/11/27 04:16:41;;;;;;;2.08;1.88;;;;;;;6.17;69.21;96670.53;6122892;23;20018;-63
2021/11/27 04:19:08;;;;;;;4.55;2.47;;;;;;;6.17;68.93;96667.91;6122360;23;20026;-61
2021/11/27 04:21:35;;;;;;;2.50;2.30;;;;;;;6.18;69.26;96675.63;6121276;23;20096;-62
2021/11/27 04:24:02;;;;;;;3.78;2.20;;;;;;;6.19;69.21;96677.25;6123207;23;20072;-61
2021/11/27 04:26:29;;;;;;;2.60;2.20;;;;;;;6.22;69.16;96674.38;6122877;23;20065;-63
2021/11/27 04:28:56;;;;;;;2.30;2.10;;;;;;;6.23;69.27;96675.19;6123049;23;20018;-62
2021/11/27 04:31:23;;;;;;;2.92;2.60;;;;;;;6.25;69.09;96671.47;6122999;23;20022;-62
2021/11/27 04:33:51;;;;;;;2.67;2.42;;;;;;;6.27;68.84;96681.00;6097073;23;20351;-62
2021/11/27 04:36:19;;;;;;;2.92;2.60;;;;;;;6.29;68.96;96690.34;6123351;23;20026;-61
2021/11/27 04:38:47;;;;;;;2.78;2.10;;;;;;;6.31;69.26;96683.19;6097122;23;20050;-62
2021/11/27 04:41:14;;;;;;;2.40;2.20;;;;;;;6.33;69.04;96689.09;6096836;23;20463;-62
2021/11/27 04:43:41;;;;;;;2.67;2.47;;;;;;;6.35;68.97;96695.00;6097290;23;20029;-64
2021/11/27 04:46:08;;;;;;;2.50;2.30;;;;;;;6.38;69.28;96697.34;6123008;23;20029;-62
2021/11/27 04:48:35;;;;;;;2.95;2.60;;;;;;;6.41;69.04;96698.03;6096960;23;20030;-63
2021/11/27 04:51:02;;;;;;;4.93;2.42;;;;;;;6.42;69.21;96699.69;6122753;23;20026;-62
2021/11/27 04:53:30;;;;;;;4.22;2.90;;;;;;;6.44;69.02;96708.22;6099355;23;20030;-62
2021/11/27 04:55:58;;;;;;;3.67;2.65;;;;;;;6.43;68.59;96714.41;6124793;23;20026;-62
2021/11/27 04:58:26;;;;;;;2.70;2.50;;;;;;;6.43;68.75;96712.59;6123869;23;20028;-63
2021/11/27 05:00:54;;;;;;;2.97;2.78;;;;;;;6.44;68.62;96718.66;6098574;23;20409;-61
2021/11/27 05:03:22;;;;;;;3.00;2.70;;;;;;;6.43;68.67;96724.84;6099029;23;20030;-65
2021/11/27 05:05:49;;;;;;;2.80;2.60;;;;;;;6.43;68.43;96732.69;6124767;23;20022;-63
2021/11/27 05:08:16;;;;;;;2.78;2.47;;;;;;;6.43;68.67;96732.69;6124874;23;20085;-62
2021/11/27 05:10:43;;;;;;;2.63;2.42;;;;;;;6.43;68.73;96736.13;6098572;23;20022;-61
2021/11/27 05:13:10;;;;;;;3.00;2.58;;;;;;;6.44;68.61;96739.56;6098748;23;20033;-62
2021/11/27 05:15:37;;;;;;;2.63;2.35;;;;;;;6.42;68.33;96739.69;6124918;23;20026;-62
2021/11/27 05:18:04;;;;;;;2.55;2.35;;;;;;;6.39;68.31;96738.19;6098955;23;20054;-63
2021/11/27 05:20:31;;;;;;;2.97;2.67;;;;;;;6.38;68.50;96739.16;6124585;23;20030;-62
2021/11/27 05:22:57;;;;;;;2.40;2.20;;;;;;;6.37;68.50;96747.97;6124158;23;20030;-61
2021/11/27 05:25:26;;;;;;;2.92;2.63;;;;;;;6.34;67.97;96742.16;6124363;23;20052;-62
2021/11/27 05:27:52;;;;;;;3.17;2.50;;;;;;;6.32;68.11;96750.13;6098775;23;20517;-61
2021/11/27 05:30:20;;;;;;;2.42;2.22;;;;;;;6.30;68.49;96759.91;6098517;23;20339;-62
2021/11/27 05:35:26;;;;;;;2.30;2.10;;;;;;;6.31;68.36;96758.13;6123974;23;20068;-62
2021/11/27 05:37:53;;;;;;;2.72;1.92;;;;;;;6.31;68.58;96755.50;6123982;23;20510;-62
2021/11/27 05:40:20;;;;;;;2.10;1.90;;;;;;;6.33;68.85;96756.19;6123816;23;20029;-62
2021/11/27 05:42:46;;;;;;;2.63;2.42;;;;;;;6.35;69.01;96755.09;6123904;23;20042;-63
2021/11/27 05:45:13;;;;;;;2.30;2.10;;;;;;;6.38;68.70;96760.06;6124672;23;20110;-62
2021/11/27 05:47:40;;;;;;;2.33;2.13;;;;;;;6.42;68.75;96762.41;6098231;23;20041;-62
2021/11/27 05:50:08;;;;;;;2.42;2.22;;;;;;;6.43;68.41;96754.41;6123679;23;20022;-63
2021/11/27 05:52:35;;;;;;;2.50;2.20;;;;;;;6.46;68.30;96761.97;6123760;23;20065;-62
2021/11/27 05:55:03;;;;;;;2.88;2.42;;;;;;;6.47;68.68;96760.19;6098493;23;20025;-61
2021/11/27 05:57:30;;;;;;;2.13;1.92;;;;;;;6.49;68.25;96774.78;6123587;23;20022;-62
2021/11/27 05:59:57;;;;;;;2.55;2.22;;;;;;;6.49;68.31;96769.56;6123664;23;20057;-60
2021/11/27 06:02:23;;;;;;;2.50;2.17;;;;;;;6.51;68.50;96774.66;6124320;23;20026;-62
2021/11/27 06:04:50;;;;;;;3.28;2.08;;;;;;;6.51;68.21;96766.81;6123799;23;20022;-62
2021/11/27 06:07:17;;;;;;;2.28;2.03;;;;;;;6.51;68.40;96777.25;6098546;23;20026;-62
2021/11/27 06:09:43;;;;;;;2.28;2.08;;;;;;;6.52;68.30;96778.91;6123746;23;20030;-62
2021/11/27 06:12:10;;;;;;;1.98;1.77;;;;;;;6.53;68.45;96788.38;6098368;23;20029;-62
2021/11/27 06:14:37;;;;;;;2.60;2.10;;;;;;;6.55;68.25;96778.66;6123708;23;20022;-63
2021/11/27 06:17:04;;;;;;;3.15;2.10;;;;;;;6.56;68.42;96788.13;6124008;23;20108;-62
2021/11/27 06:19:31;;;;;;;2.50;2.30;;;;;;;6.56;68.12;96775.06;6123714;23;20076;-62
2021/11/27 06:21:58;;;;;;;2.60;2.40;;;;;;;6.56;68.25;96782.91;6123908;23;20026;-62
2021/11/27 06:24:24;;;;;;;2.78;2.58;;;;;;;6.54;67.80;96779.59;6123728;23;20404;-63
2021/11/27 06:26:51;;;;;;;2.63;2.42;;;;;;;6.50;67.76;96780.81;6098411;23;20092;-62
2021/11/27 06:29:18;;;;;;;4.95;2.92;;;;;;;6.48;67.82;96788.81;6123810;23;20030;-61
2021/11/27 06:31:45;;;;;;;3.17;2.83;;;;;;;6.45;67.99;96794.31;6123725;23;20029;-62
2021/11/27 06:34:11;;;;;;;2.38;2.17;;;;;;;6.44;68.11;96791.81;6098117;23;20026;-63
2021/11/27 06:36:38;;;;;;;2.97;2.53;;;;;;;6.42;68.00;96797.19;6122218;23;20077;-62
2021/11/27 06:39:04;;;;;;;2.83;2.53;;;;;;;6.41;68.21;96798.16;6123998;23;20022;-62
2021/11/27 06:41:31;;;;;;;3.08;2.70;;;;;;;6.41;68.14;96802.53;6123957;23;20041;-61
2021/11/27 06:43:58;;;;;;;3.03;2.63;;;;;;;6.40;67.99;96806.94;6124033;23;20470;-62
2021/11/27 06:46:24;;;;;;;3.10;2.80;;;;;;;6.39;68.26;96805.28;6123387;23;20395;-63
2021/11/27 06:48:51;;;;;;;3.58;2.75;;;;;;;6.38;68.15;96812.31;6123765;23;20036;-62
2021/11/27 06:51:18;;;;;;;3.30;3.00;;;;;;;6.37;68.15;96817.66;6123076;23;20451;-63
2021/11/27 06:53:44;;;;;;;3.63;3.13;;;;;;;6.36;68.33;96821.25;6123190;23;20018;-62
2021/11/27 06:56:11;;;;;;;4.20;3.80;;;;;;;6.35;68.01;96830.00;6123453;23;20054;-62
2021/11/27 06:58:38;;;;;;;4.15;3.45;;;;;;;6.33;68.32;96824.94;6123526;23;20088;-61
2021/11/27 07:01:04;;;;;;;5.00;3.90;;;;;;;6.33;68.37;96827.56;6122972;23;20077;-62
2021/11/27 07:03:34;;;;;;;4.32;3.92;;;;;;;6.32;68.22;96836.34;6123834;23;20125;-63
2021/11/27 07:06:02;;;;;;;5.90;3.90;;;;;;;6.32;68.29;96833.72;6123882;23;20021;-62
2021/11/27 07:08:28;;;;;;;5.68;4.60;;;;;;;6.30;68.62;96834.81;6123789;23;20026;-63
2021/11/27 07:10:55;;;;;;;6.90;4.20;;;;;;;6.31;68.43;96833.88;6122963;23;20026;-61
2021/11/27 07:13:22;;;;;;;4.75;4.25;;;;;;;6.28;68.37;96839.38;6123172;23;20030;-62
2021/11/27 07:15:49;;;;;;;7.53;4.55;;;;;;;6.28;68.50;96847.19;6098067;23;20026;-64
2021/11/27 07:18:15;;;;;;;6.85;5.90;;;;;;;6.25;68.45;96846.50;6123766;23;20022;-62
2021/11/27 07:20:42;;;;;;;6.07;5.40;;;;;;;6.26;68.31;96849.94;6123331;23;20029;-62
2021/11/27 07:23:09;;;;;;;6.18;5.28;;;;;;;6.24;68.55;96863.13;6123401;23;20077;-62
2021/11/27 07:25:37;;;;;;;6.03;5.07;;;;;;;6.23;68.79;96858.03;6123570;23;20025;-62
2021/11/27 07:28:05;;;;;;;6.30;5.35;;;;;;;6.21;68.68;96862.56;6123060;23;20033;-61
2021/11/27 07:30:33;;;;;;;7.00;5.80;;;;;;;6.19;68.74;96859.25;6097191;23;20022;-62
2021/11/27 07:33:00;;;;;;;6.07;5.15;;;;;;;6.18;69.02;96858.44;6122857;23;20537;-62
2021/11/27 07:35:27;;;;;;;6.47;5.03;;;;;;;6.17;69.01;96869.03;6123900;23;20073;-62
2021/11/27 07:37:54;;;;;;;7.38;5.45;;;;;;;6.15;69.43;96863.94;6097645;23;20026;-62
2021/11/27 07:40:22;;;;;;;6.68;5.25;;;;;;;6.15;69.33;96884.81;6097686;23;20022;-64
2021/11/27 07:42:52;;;;;;;6.43;5.70;;;;;;;6.18;69.42;96888.94;6097530;23;20036;-63
2021/11/27 07:45:20;;;;;;;6.93;5.93;;;;;;;6.20;69.46;96892.28;6123413;23;20471;-62
2021/11/27 07:47:47;;;;;;;7.13;4.78;;;;;;;6.20;69.33;96897.50;6097219;23;20379;-60
2021/11/27 07:50:14;;;;;;;6.47;5.32;;;;;;;6.23;69.61;96902.44;6123562;23;20028;-62
2021/11/27 07:52:41;;;;;;;7.60;5.47;;;;;;;6.23;69.23;96900.66;6123314;23;20034;-63
2021/11/27 07:55:08;;;;;;;9.30;6.40;;;;;;;6.25;69.28;96897.94;6123051;23;20041;-62
2021/11/27 07:57:35;;;;;;;7.07;6.20;;;;;;;6.26;69.32;96902.19;6097404;23;20026;-62
2021/11/27 08:00:04;;;;;;;7.47;6.15;;;;;;;6.25;69.26;96903.97;6097305;23;20026;-61
2021/11/27 08:02:30;;;;;;;7.28;5.90;;;;;;;6.25;69.33;96903.16;6121236;23;20026;-62
2021/11/27 08:04:57;;;;;;;8.77;7.15;;;;;;;6.23;69.31;96925.94;6123111;23;20076;-61
2021/11/27 08:07:24;;;;;;;8.68;6.65;;;;;;;6.19;69.14;96917.56;6122823;23;20481;-63
2021/11/27 08:09:50;;;;;;;11.13;7.50;;;;;;;6.16;68.97;96927.44;6122935;23;20065;-62
2021/11/27 08:12:17;;;;;;;11.90;8.38;;;;;;;6.11;69.32;96928.66;6123061;23;20029;-62
2021/11/27 08:14:43;;;;;;;11.70;8.35;;;;;;;6.07;69.23;96940.31;6122780;23;20668;-61
2021/11/27 08:17:10;;;;;;;13.32;9.38;;;;;;;6.03;68.90;96944.16;6122761;23;20623;-62
2021/11/27 08:19:37;;;;;;;14.30;9.85;;;;;;;5.98;68.87;96946.28;6122868;23;20351;-62
2021/11/27 08:22:03;;;;;;;14.65;9.70;;;;;;;5.92;68.98;96950.22;6123083;23;20124;-63
2021/11/27 08:24:30;;;;;;;16.52;10.25;;;;;;;5.86;68.86;96959.41;6122706;23;20062;-62
2021/11/27 08:26:56;;;;;;;16.90;10.48;;;;;;;5.82;69.04;96960.59;6123476;23;20403;-62
2021/11/27 08:29:23;;;;;;;16.85;10.57;;;;;;;5.77;69.21;96962.78;6124638;23;20530;-61
2021/11/27 08:31:50;;;;;;;14.43;9.43;;;;;;;5.75;69.07;96956.84;6124784;23;20612;-62
2021/11/27 08:34:16;;;;;;;14.82;9.88;;;;;;;5.73;69.27;96966.59;6124113;23;20022;-62
2021/11/27 08:36:43;;;;;;;13.82;10.05;;;;;;;5.70;69.20;96969.44;6124228;23;20021;-62
2021/11/27 08:39:11;;;;;;;12.90;8.93;;;;;;;5.67;69.40;96975.75;6124926;23;20085;-61
2021/11/27 08:41:37;;;;;;;14.15;9.88;;;;;;;5.67;69.45;96982.75;6099302;23;20032;-61
2021/11/27 08:44:05;;;;;;;13.18;8.88;;;;;;;5.64;69.37;96989.03;6124963;23;20026;-62
2021/11/27 08:46:32;;;;;;;9.52;6.93;;;;;;;5.63;69.36;96986.53;6125100;23;20021;-61
2021/11/27 08:48:59;;;;;;;8.85;5.88;;;;;;;5.59;68.98;96996.41;6098936;23;20033;-62
2021/11/27 08:51:31;;;;;;;9.65;5.68;;;;;;;5.54;69.09;96983.75;6124538;23;20029;-62
2021/11/27 08:53:58;;;;;;;8.00;5.05;;;;;;;5.51;68.86;96997.06;6124703;23;20660;-62
2021/11/27 08:56:25;;;;;;;6.45;4.40;;;;;;;5.47;69.11;96995.63;6124331;23;20029;-61
2021/11/27 08:58:52;;;;;;;6.22;4.43;;;;;;;5.41;69.12;96998.72;6124878;23;20447;-61
2021/11/27 09:01:19;;;;;;;6.90;4.60;;;;;;;5.38;69.04;96993.78;6124284;23;20026;-62
2021/11/27 09:03:47;;;;;;;6.70;4.28;;;;;;;5.33;69.14;96996.75;6124743;23;20396;-62
2021/11/27 09:06:14;;;;;;;5.50;3.92;;;;;;;5.31;69.36;97001.25;6099039;23;20028;-62
2021/11/27 09:08:42;;;;;;;6.05;4.20;;;;;;;5.28;69.50;96999.72;6124822;23;20022;-63
2021/11/27 09:11:11;;;;;;;6.30;4.35;;;;;;;5.26;69.54;97009.44;6098426;23;20093;-61
2021/11/27 09:13:38;;;;;;;5.40;3.58;;;;;;;5.24;69.75;97005.31;6099112;23;20022;-62
2021/11/27 09:16:05;;;;;;;5.10;3.65;;;;;;;5.22;69.42;97008.88;6124601;23;20018;-62
2021/11/27 09:18:52;;;;;;;6.53;4.00;;;;;;;5.20;69.49;97013.38;6093098;23;20078;-62
2021/11/27 09:21:19;;;;;;;4.93;3.65;;;;;;;5.17;69.61;97018.84;6124368;23;20036;-62
2021/11/27 09:23:46;;;;;;;5.95;3.70;;;;;;;5.13;69.68;97019.19;6124829;23;20025;-62
2021/11/27 09:26:14;;;;;;;6.53;3.90;;;;;;;5.11;69.42;97015.88;6099207;23;20018;-62
2021/11/27 09:28:42;;;;;;;7.60;4.03;;;;;;;5.07;69.85;97023.09;6123597;23;20026;-62
2021/11/27 09:31:09;;;;;;;6.53;4.13;;;;;;;5.05;69.82;97032.84;6124051;23;20443;-61
2021/11/27 09:33:36;;;;;;;6.80;4.38;;;;;;;5.02;69.87;97033.91;6124325;23;20026;-61
2021/11/27 09:36:06;;;;;;;6.68;4.50;;;;;;;5.00;69.79;97043.63;6124504;23;20073;-61
2021/11/27 09:38:34;;;;;;;6.07;4.15;;;;;;;4.97;70.03;97036.03;6123236;23;20025;-62
2021/11/27 09:41:27;;;;;;;7.18;3.75;;;;;;;4.92;70.91;97053.81;6098050;23;20502;-61
2021/11/27 09:43:57;;;;;;;7.50;4.68;;;;;;;4.94;70.30;97051.94;6098453;23;20486;-62
2021/11/27 09:46:25;;;;;;;5.65;4.25;;;;;;;4.92;70.23;97057.25;6123756;23;20455;-61
2021/11/27 09:48:55;;;;;;;5.70;4.07;;;;;;;4.91;70.44;97059.97;6097871;23;20025;-63
2021/11/27 09:51:24;;;;;;;6.38;3.75;;;;;;;4.90;70.55;97071.34;6098146;23;20490;-61
2021/11/27 09:53:52;;;;;;;5.50;4.00;;;;;;;4.89;70.32;97069.69;6123972;23;20033;-62
2021/11/27 09:56:20;;;;;;;5.00;3.83;;;;;;;4.87;70.51;97074.19;6097880;23;20018;-61
2021/11/27 09:58:47;;;;;;;4.80;3.05;;;;;;;4.87;70.32;97068.97;6123126;23;20022;-62
2021/11/27 10:01:16;;;;;;;4.60;3.08;;;;;;;4.86;70.67;97069.94;6123649;23;20026;-61
2021/11/27 10:04:02;;;;;;;3.80;3.35;;;;;;;4.87;70.64;97071.59;6098556;23;20025;-62
2021/11/27 10:06:34;;;;;;;4.97;3.63;;;;;;;4.87;70.90;97074.19;6123782;23;20022;-68
2021/11/27 10:09:13;;;;;;;4.07;3.30;;;;;;;4.88;70.92;97078.44;6123969;23;20034;-62
2021/11/27 10:11:42;;;;;;;4.38;3.75;;;;;;;4.90;70.67;97087.81;6112843;23;20376;-61
2021/11/27 10:14:09;;;;;;;6.07;3.80;;;;;;;4.92;70.64;97085.09;6098010;23;20329;-65
2021/11/27 10:16:59;;;;;;;4.53;3.70;;;;;;;4.89;71.31;97080.94;6098010;23;20018;-61
2021/11/27 10:19:44;;;;;;;8.63;4.63;;;;;;;4.94;70.68;97089.25;6118410;23;20041;-61
2021/11/27 10:22:14;;;;;;;6.47;5.20;;;;;;;4.94;70.64;97086.63;6123953;23;20026;-61
2021/11/27 10:24:42;;;;;;;10.18;4.88;;;;;;;4.94;70.57;97088.44;6098612;23;20022;-62
2021/11/27 10:27:28;;;;;;;13.35;5.60;;;;;;;4.90;71.32;97089.59;6123753;23;20057;-62
2021/11/27 10:30:08;;;;;;;19.63;5.40;;;;;;;4.88;71.14;97094.09;6123596;23;20021;-61
2021/11/27 10:32:38;;;;;;;13.35;5.43;;;;;;;4.87;70.58;97105.47;6098328;23;20034;-62
2021/11/27 10:35:21;;;;;;;25.17;7.82;;;;;;;4.82;70.83;97092.78;6097861;23;20022;-61
2021/11/27 10:37:53;;;;;;;32.88;7.10;;;;;;;4.79;71.14;97099.06;6123781;23;20026;-61
2021/11/27 10:40:23;;;;;;;14.10;6.20;;;;;;;4.78;71.17;97102.63;6123228;23;20026;-61
2021/11/27 10:42:58;;;;;;;10.50;5.90;;;;;;;4.76;71.60;97101.09;6123206;23;20022;-62
2021/11/27 10:45:34;;;;;;;13.48;5.70;;;;;;;4.76;71.48;97103.69;6098200;23;20030;-64
2021/11/27 10:48:19;;;;;;;9.07;5.85;;;;;;;4.74;72.13;97114.22;6123706;23;20022;-62
2021/11/27 10:50:55;;;;;;;8.07;5.28;;;;;;;4.79;71.55;97111.28;6097578;23;20048;-61
2021/11/27 10:53:28;;;;;;;6.65;5.10;;;;;;;4.78;71.82;97120.88;6123183;23;20335;-64
2021/11/27 10:56:04;;;;;;;6.65;4.55;;;;;;;4.79;72.03;97125.13;6098063;23;20026;-63
2021/11/27 10:58:31;;;;;;;7.55;4.95;;;;;;;4.82;71.67;97122.28;6123924;23;20033;-63
2021/11/27 11:01:00;;;;;;;9.20;5.22;;;;;;;4.85;71.64;97125.63;6121545;23;20029;-63
2021/11/27 11:03:33;;;;;;;5.28;4.18;;;;;;;4.82;72.02;97134.47;6097587;23;20101;-61
2021/11/27 11:06:17;;;;;;;6.03;3.97;;;;;;;4.85;71.51;97139.47;6122389;23;20062;-61
2021/11/27 11:08:44;;;;;;;7.78;4.32;;;;;;;4.86;71.64;97138.50;6122957;23;20018;-62
2021/11/27 11:11:31;;;;;;;6.95;3.70;;;;;;;4.81;72.73;97141.50;6123099;23;20522;-60
2021/11/27 11:14:00;;;;;;;5.35;4.15;;;;;;;4.87;71.99;97147.19;6122925;23;20026;-62
2021/11/27 11:16:32;;;;;;;5.03;3.80;;;;;;;4.85;72.06;97149.09;6123524;23;20025;-61
2021/11/27 11:19:20;;;;;;;7.75;3.97;;;;;;;4.83;72.57;97147.41;6123302;23;20447;-61
2021/11/27 11:22:21;;;;;;;4.97;3.78;;;;;;;4.83;72.57;97150.00;6097536;23;20510;-61
2021/11/27 11:24:48;;;;;;;4.97;3.83;;;;;;;4.88;71.78;97152.28;6105978;23;20033;-63
2021/11/27 11:27:32;;;;;;;6.60;4.18;;;;;;;4.86;72.61;97153.34;6121804;23;20021;-61
2021/11/27 11:30:02;;;;;;;4.50;3.50;;;;;;;4.91;71.72;97156.44;6122453;23;20021;-61
2021/11/27 11:32:28;;;;;;;3.92;3.17;;;;;;;4.91;72.05;97156.44;6097657;23;20060;-61
2021/11/27 11:34:58;;;;;;;4.85;3.10;;;;;;;4.92;71.93;97160.69;6123058;23;20022;-61
2021/11/27 11:37:25;;;;;;;3.28;2.70;;;;;;;4.93;71.87;97154.53;6123459;23;20026;-62
2021/11/27 11:39:53;;;;;;;3.88;2.97;;;;;;;4.96;71.90;97159.50;6123511;23;20037;-63
2021/11/27 11:42:25;;;;;;;5.78;3.30;;;;;;;4.98;71.89;97162.00;6097728;23;20026;-62
2021/11/27 11:44:53;;;;;;;4.75;3.63;;;;;;;4.99;71.77;97156.69;6123178;23;20467;-61
2021/11/27 11:47:21;;;;;;;4.75;3.90;;;;;;;5.00;71.99;97160.94;6097611;23;20073;-61
2021/11/27 11:49:53;;;;;;;9.43;5.07;;;;;;;5.00;72.01;97157.50;6122657;23;20040;-61
2021/11/27 11:52:35;;;;;;;5.43;4.22;;;;;;;5.00;72.33;97158.34;6097517;23;20018;-61